createdAt,value
2023-05-19T00:00:47.573Z,2.70
2023-05-19T00:03:21.875Z,2.97
2023-05-19T00:05:54.357Z,4.15
2023-05-19T00:08:26.331Z,3.42
2023-05-19T00:10:58.930Z,4.00
2023-05-19T00:13:29.054Z,3.30
2023-05-19T00:16:01.222Z,2.30
2023-05-19T00:18:31.015Z,2.80
2023-05-19T00:21:00.755Z,2.95
2023-05-19T00:23:30.188Z,2.80
2023-05-19T00:25:59.455Z,2.35
2023-05-19T00:28:28.990Z,2.55
2023-05-19T00:31:00.184Z,3.60
2023-05-19T00:33:34.199Z,2.08
2023-05-19T00:36:04.394Z,3.40
2023-05-19T00:38:36.371Z,2.45
2023-05-19T00:41:07.389Z,2.85
2023-05-19T00:43:37.271Z,3.63
2023-05-19T00:46:08.764Z,2.42
2023-05-19T00:48:38.528Z,2.70
2023-05-19T00:51:08.394Z,2.70
2023-05-19T00:53:38.361Z,3.03
2023-05-19T00:56:08.451Z,3.35
2023-05-19T00:58:39.359Z,3.30
2023-05-19T01:01:17.517Z,2.67
2023-05-19T01:03:48.849Z,2.47
2023-05-19T01:06:20.381Z,2.97
2023-05-19T01:08:53.461Z,2.15
2023-05-19T01:11:23.117Z,3.15
2023-05-19T01:13:52.653Z,3.25
2023-05-19T01:16:32.406Z,2.78
2023-05-19T01:19:15.961Z,2.70
2023-05-19T01:22:17.234Z,4.45
2023-05-19T01:25:24.474Z,2.47
2023-05-19T01:28:24.020Z,3.15
2023-05-19T01:30:56.557Z,2.60
2023-05-19T01:33:26.421Z,2.58
2023-05-19T01:35:56.751Z,3.83
2023-05-19T01:38:29.719Z,2.63
2023-05-19T01:41:00.283Z,2.88
2023-05-19T01:43:30.851Z,3.05
2023-05-19T01:46:04.305Z,3.13
2023-05-19T01:48:34.878Z,3.10
2023-05-19T01:51:04.293Z,3.40
2023-05-19T01:53:33.789Z,3.45
2023-05-19T01:56:03.764Z,4.32
2023-05-19T01:58:41.612Z,2.33
2023-05-19T02:01:22.498Z,3.50
2023-05-19T02:04:14.359Z,2.25
2023-05-19T02:06:48.118Z,3.08
2023-05-19T02:09:20.854Z,3.20
2023-05-19T02:11:58.059Z,3.45
2023-05-19T02:14:43.232Z,3.08
2023-05-19T02:17:16.526Z,3.47
2023-05-19T02:19:46.346Z,3.65
2023-05-19T02:22:17.190Z,3.53
2023-05-19T02:24:48.020Z,2.75
2023-05-19T02:27:17.957Z,3.22
2023-05-19T02:29:47.624Z,3.28
2023-05-19T02:32:19.130Z,2.55
2023-05-19T02:34:49.336Z,2.35
2023-05-19T02:37:18.782Z,2.75
2023-05-19T02:39:51.560Z,2.80
2023-05-19T02:42:21.102Z,3.50
2023-05-19T02:44:50.935Z,2.90
2023-05-19T02:47:22.367Z,2.50
2023-05-19T02:49:52.217Z,2.70
2023-05-19T02:52:21.986Z,2.97
2023-05-19T02:54:51.523Z,2.83
2023-05-19T02:57:21.294Z,2.22
2023-05-19T02:59:51.163Z,2.85
2023-05-19T03:02:22.190Z,2.55
2023-05-19T03:04:51.832Z,2.30
2023-05-19T03:07:25.311Z,3.10
2023-05-19T03:09:54.950Z,2.50
2023-05-19T03:12:27.495Z,3.17
2023-05-19T03:14:57.454Z,2.58
2023-05-19T03:17:33.656Z,2.78
2023-05-19T03:20:03.791Z,3.08
2023-05-19T03:22:34.630Z,2.75
2023-05-19T03:25:04.987Z,2.33
2023-05-19T03:27:35.393Z,3.15
2023-05-19T03:30:06.594Z,2.80
2023-05-19T03:32:43.114Z,2.83
2023-05-19T03:35:12.745Z,2.70
2023-05-19T03:37:41.939Z,2.45
2023-05-19T03:40:12.486Z,3.60
2023-05-19T03:42:44.266Z,2.70
2023-05-19T03:45:13.989Z,3.25
2023-05-19T03:47:46.805Z,2.20
2023-05-19T03:50:31.742Z,2.53
2023-05-19T03:53:14.559Z,2.40
2023-05-19T03:55:44.653Z,4.18
2023-05-19T03:58:19.217Z,3.17
2023-05-19T04:00:48.626Z,3.08
2023-05-19T04:03:20.185Z,3.15
2023-05-19T04:05:49.446Z,3.83
2023-05-19T04:08:18.890Z,3.00
2023-05-19T04:10:47.940Z,2.33
2023-05-19T04:13:17.197Z,2.70
2023-05-19T04:15:46.217Z,2.75
2023-05-19T04:18:15.465Z,2.80
2023-05-19T04:20:46.928Z,2.40
2023-05-19T04:23:16.111Z,2.83
2023-05-19T04:25:48.971Z,2.88
2023-05-19T04:28:18.868Z,2.47
2023-05-19T04:30:48.244Z,2.90
2023-05-19T04:33:18.259Z,2.23
2023-05-19T04:35:50.336Z,2.57
2023-05-19T04:38:20.301Z,2.60
2023-05-19T04:40:52.046Z,3.33
2023-05-19T04:43:22.473Z,3.27
2023-05-19T04:45:52.937Z,2.90
2023-05-19T04:48:27.496Z,2.63
2023-05-19T04:50:58.001Z,3.13
2023-05-19T04:53:27.442Z,2.80
2023-05-19T04:55:56.780Z,2.70
2023-05-19T04:58:27.564Z,2.27
2023-05-19T05:00:57.866Z,2.40
2023-05-19T05:03:27.193Z,2.33
2023-05-19T05:05:58.928Z,2.40
2023-05-19T05:08:28.360Z,3.17
2023-05-19T05:10:58.453Z,2.70
2023-05-19T05:13:28.808Z,3.17
2023-05-19T05:15:58.689Z,2.40
2023-05-19T05:18:28.805Z,2.70
2023-05-19T05:21:00.105Z,2.97
2023-05-19T05:23:30.327Z,2.70
2023-05-19T05:26:12.303Z,2.30
2023-05-19T05:28:42.738Z,2.50
2023-05-19T05:31:11.807Z,2.50
2023-05-19T05:33:42.613Z,2.87
2023-05-19T05:36:15.829Z,2.50
2023-05-19T05:38:44.936Z,2.30
2023-05-19T05:41:17.310Z,2.27
2023-05-19T05:43:48.529Z,2.67
2023-05-19T05:46:18.006Z,2.70
2023-05-19T05:48:48.214Z,2.60
2023-05-19T05:51:19.269Z,2.60
2023-05-19T05:53:53.628Z,2.97
2023-05-19T05:56:25.112Z,2.40
2023-05-19T05:58:56.984Z,2.10
2023-05-19T06:01:26.345Z,2.57
2023-05-19T06:03:55.899Z,2.57
2023-05-19T06:06:27.707Z,2.50
2023-05-19T06:08:57.391Z,2.73
2023-05-19T06:11:27.149Z,3.30
2023-05-19T06:13:58.108Z,2.93
2023-05-19T06:17:06.025Z,3.40
2023-05-19T06:19:36.740Z,3.03
2023-05-19T06:22:07.152Z,2.93
2023-05-19T06:24:38.657Z,2.33
2023-05-19T06:27:09.414Z,2.30
2023-05-19T06:29:38.540Z,2.60
2023-05-19T06:32:09.528Z,3.10
2023-05-19T06:34:40.532Z,3.00
2023-05-19T06:37:11.260Z,2.70
2023-05-19T06:39:40.451Z,2.53
2023-05-19T06:42:09.590Z,3.40
2023-05-19T06:45:11.961Z,2.40
2023-05-19T06:47:42.643Z,3.60
2023-05-19T06:50:12.421Z,3.97
2023-05-19T06:52:47.085Z,2.83
2023-05-19T06:55:16.217Z,2.63
2023-05-19T06:57:45.217Z,3.73
2023-05-19T07:00:32.031Z,2.90
2023-05-19T07:03:01.498Z,4.00
2023-05-19T07:05:31.876Z,3.10
2023-05-19T07:08:05.178Z,2.47
2023-05-19T07:10:34.806Z,2.70
2023-05-19T07:13:06.480Z,2.90
2023-05-19T07:15:36.476Z,2.43
2023-05-19T07:18:06.277Z,2.30
2023-05-19T07:20:35.598Z,2.30
2023-05-19T07:23:06.024Z,2.90
2023-05-19T07:25:35.330Z,2.70
2023-05-19T07:28:04.467Z,2.40
2023-05-19T07:30:33.731Z,3.03
2023-05-19T07:33:03.135Z,3.30
2023-05-19T07:35:32.338Z,2.97
2023-05-19T07:38:02.461Z,3.03
2023-05-19T07:40:32.848Z,2.23
2023-05-19T07:43:01.999Z,2.70
2023-05-19T07:45:31.079Z,3.07
2023-05-19T07:48:00.069Z,2.50
2023-05-19T07:50:29.271Z,2.53
2023-05-19T07:52:59.614Z,2.80
2023-05-19T07:55:28.676Z,2.47
2023-05-19T07:57:58.962Z,3.60
2023-05-19T08:00:28.420Z,3.57
2023-05-19T08:02:58.133Z,2.33
2023-05-19T08:05:27.244Z,3.07
2023-05-19T08:07:56.643Z,3.30
2023-05-19T08:10:25.681Z,3.03
2023-05-19T08:12:54.758Z,3.20
2023-05-19T08:15:25.545Z,3.50
2023-05-19T08:17:54.790Z,3.60
2023-05-19T08:20:24.492Z,2.80
2023-05-19T08:22:53.507Z,2.77
2023-05-19T08:25:22.693Z,4.13
2023-05-19T08:27:52.185Z,3.33
2023-05-19T08:30:21.354Z,2.97
2023-05-19T08:32:51.915Z,3.13
2023-05-19T08:35:20.961Z,3.37
2023-05-19T08:37:50.538Z,3.00
2023-05-19T08:40:20.212Z,3.57
2023-05-19T08:42:49.805Z,2.93
2023-05-19T08:45:22.098Z,3.67
2023-05-19T08:47:57.403Z,2.80
2023-05-19T08:50:32.355Z,2.20
2023-05-19T08:53:21.080Z,2.27
2023-05-19T08:56:11.110Z,2.07
2023-05-19T08:58:44.392Z,2.70
2023-05-19T09:01:17.279Z,2.00
2023-05-19T09:03:49.988Z,2.17
2023-05-19T09:06:19.595Z,2.97
2023-05-19T09:08:48.745Z,3.00
2023-05-19T09:11:25.794Z,2.57
2023-05-19T09:14:24.126Z,2.23
2023-05-19T09:17:07.545Z,2.30
2023-05-19T09:23:02.280Z,2.20
2023-05-19T09:26:00.616Z,2.00
2023-05-19T09:28:31.818Z,1.90
2023-05-19T09:31:05.246Z,2.33
2023-05-19T09:33:37.110Z,2.03
2023-05-19T09:36:10.975Z,1.70
2023-05-19T09:38:41.480Z,1.87
2023-05-19T09:41:11.531Z,1.57
2023-05-19T09:43:40.607Z,1.37
2023-05-19T09:46:12.186Z,1.70
2023-05-19T09:48:43.953Z,2.80
2023-05-19T09:51:17.688Z,1.67
2023-05-19T09:53:49.411Z,1.80
2023-05-19T09:56:23.639Z,1.77
2023-05-19T09:58:53.285Z,1.80
2023-05-19T10:01:23.276Z,2.00
2023-05-19T10:03:53.777Z,1.53
2023-05-19T10:06:24.621Z,1.47
2023-05-19T10:08:54.807Z,1.90
2023-05-19T10:11:24.890Z,1.90
2023-05-19T10:13:54.103Z,1.50
2023-05-19T10:16:25.808Z,1.83
2023-05-19T10:18:56.826Z,1.87
2023-05-19T10:21:28.027Z,2.17
2023-05-19T10:23:57.404Z,1.60
2023-05-19T10:26:28.027Z,2.10
2023-05-19T10:28:58.445Z,1.70
2023-05-19T10:31:28.769Z,1.97
2023-05-19T10:34:25.116Z,1.30
2023-05-19T10:37:04.766Z,1.70
2023-05-19T10:39:37.597Z,1.40
2023-05-19T10:42:17.152Z,1.67
2023-05-19T10:44:58.977Z,1.73
2023-05-19T10:47:28.657Z,1.30
2023-05-19T10:49:58.425Z,1.50
2023-05-19T10:52:31.029Z,1.80
2023-05-19T10:55:04.999Z,1.73
2023-05-19T10:57:34.592Z,1.80
2023-05-19T11:00:11.667Z,1.90
2023-05-19T11:02:43.172Z,1.63
2023-05-19T11:05:15.023Z,2.10
2023-05-19T11:07:56.393Z,1.60
2023-05-19T11:10:25.506Z,1.80
2023-05-19T11:12:58.574Z,1.60
2023-05-19T11:15:28.744Z,1.63
2023-05-19T11:17:58.309Z,1.80
2023-05-19T11:20:29.564Z,2.30
2023-05-19T11:23:10.731Z,1.53
2023-05-19T11:25:48.234Z,1.30
2023-05-19T11:28:25.896Z,1.50
2023-05-19T11:30:57.837Z,2.03
2023-05-19T11:33:28.311Z,1.40
2023-05-19T11:35:59.246Z,2.07
2023-05-19T11:38:33.292Z,1.67
2023-05-19T11:41:02.980Z,1.70
2023-05-19T11:43:32.274Z,1.27
2023-05-19T11:46:02.575Z,1.73
2023-05-19T11:48:32.403Z,1.73
2023-05-19T11:51:02.757Z,1.40
2023-05-19T11:53:36.347Z,1.70
2023-05-19T11:56:06.471Z,1.50
2023-05-19T11:58:36.051Z,1.70
2023-05-19T12:01:07.086Z,1.50
2023-05-19T12:03:36.881Z,1.53
2023-05-19T12:06:08.691Z,2.00
2023-05-19T12:08:39.735Z,1.60
2023-05-19T12:11:08.885Z,1.77
2023-05-19T12:13:38.506Z,1.60
2023-05-19T12:16:08.308Z,2.03
2023-05-19T12:18:39.459Z,1.60
2023-05-19T12:21:08.805Z,1.93
2023-05-19T12:23:40.263Z,1.53
2023-05-19T12:26:09.942Z,1.77
2023-05-19T12:28:39.150Z,2.10
2023-05-19T12:31:08.355Z,1.70
2023-05-19T12:33:37.733Z,1.77
2023-05-19T12:36:08.745Z,1.40
2023-05-19T12:38:39.719Z,1.90
2023-05-19T12:41:08.885Z,2.17
2023-05-19T12:43:40.645Z,1.57
2023-05-19T12:46:13.517Z,2.10
2023-05-19T12:48:42.989Z,2.00
2023-05-19T12:51:12.248Z,2.20
2023-05-19T12:53:43.140Z,2.53
2023-05-19T12:56:16.499Z,2.37
2023-05-19T12:58:46.106Z,2.13
2023-05-19T13:01:19.013Z,2.50
2023-05-19T13:03:48.228Z,2.10
2023-05-19T13:06:17.312Z,1.40
2023-05-19T13:08:51.830Z,2.00
2023-05-19T13:11:21.295Z,2.20
2023-05-19T13:13:53.560Z,2.10
2023-05-19T13:16:22.700Z,1.53
2023-05-19T13:18:52.944Z,1.80
2023-05-19T13:21:22.346Z,1.60
2023-05-19T13:23:53.638Z,2.10
2023-05-19T13:26:23.758Z,2.23
2023-05-19T13:28:52.951Z,2.27
2023-05-19T13:31:22.858Z,2.10
2023-05-19T13:33:54.644Z,2.17
2023-05-19T13:36:23.945Z,1.90
2023-05-19T13:38:54.287Z,1.87
2023-05-19T13:41:26.171Z,2.77
2023-05-19T13:43:55.292Z,1.90
2023-05-19T13:46:36.388Z,2.00
2023-05-19T13:49:13.493Z,2.37
2023-05-19T13:51:44.751Z,1.73
2023-05-19T13:54:15.136Z,2.63
2023-05-19T13:56:46.081Z,2.17
2023-05-19T13:59:15.784Z,2.00
2023-05-19T14:01:45.466Z,2.27
2023-05-19T14:04:14.889Z,2.00
2023-05-19T14:06:44.140Z,2.30
2023-05-19T14:09:14.923Z,2.03
2023-05-19T14:11:44.165Z,1.90
2023-05-19T14:14:16.266Z,2.13
2023-05-19T14:16:45.607Z,2.33
2023-05-19T14:19:14.858Z,1.50
2023-05-19T14:21:44.433Z,2.80
2023-05-19T14:24:15.077Z,1.77
2023-05-19T14:26:44.546Z,2.00
2023-05-19T14:29:14.642Z,3.00
2023-05-19T14:31:46.360Z,2.07
2023-05-19T14:34:17.939Z,2.50
2023-05-19T14:36:46.881Z,2.07
2023-05-19T14:39:17.429Z,2.20
2023-05-19T14:41:47.224Z,1.77
2023-05-19T14:44:16.518Z,1.50
2023-05-19T14:46:45.484Z,1.70
2023-05-19T14:49:14.689Z,1.70
2023-05-19T14:51:43.595Z,2.03
2023-05-19T14:54:12.602Z,2.43
2023-05-19T14:56:43.096Z,1.63
2023-05-19T14:59:12.192Z,1.90
2023-05-19T15:01:41.302Z,2.20
2023-05-19T15:04:12.199Z,1.40
2023-05-19T15:06:41.281Z,1.70
2023-05-19T15:09:11.969Z,2.13
2023-05-19T15:11:42.406Z,2.00
2023-05-19T15:14:11.316Z,1.73
2023-05-19T15:16:40.287Z,2.83
2023-05-19T15:19:09.561Z,2.60
2023-05-19T15:21:38.760Z,1.97
2023-05-19T15:24:08.734Z,2.00
2023-05-19T15:26:37.665Z,1.87
2023-05-19T15:29:07.927Z,3.00
2023-05-19T15:31:38.452Z,2.03
2023-05-19T15:34:08.076Z,2.57
2023-05-19T15:36:37.139Z,2.07
2023-05-19T15:39:06.558Z,2.00
2023-05-19T15:41:35.523Z,2.50
2023-05-19T15:44:04.618Z,1.77
2023-05-19T15:46:35.528Z,1.73
2023-05-19T15:49:04.617Z,1.90
2023-05-19T15:51:33.771Z,2.23
2023-05-19T15:54:02.746Z,2.90
2023-05-19T15:56:31.737Z,1.80
2023-05-19T15:59:00.840Z,2.43
2023-05-19T16:01:30.678Z,2.03
2023-05-19T16:04:03.893Z,1.80
2023-05-19T16:06:33.440Z,1.53
2023-05-19T16:09:02.450Z,1.70
2023-05-19T16:11:31.661Z,2.40
2023-05-19T16:14:00.850Z,2.13
2023-05-19T16:16:30.041Z,2.10
2023-05-19T16:19:00.549Z,2.37
2023-05-19T16:21:29.800Z,1.73
2023-05-19T16:23:59.146Z,2.10
2023-05-19T16:26:29.098Z,1.90
2023-05-19T16:28:58.107Z,2.00
2023-05-19T16:31:27.622Z,1.93
2023-05-19T16:33:56.853Z,1.97
2023-05-19T16:36:27.423Z,1.97
2023-05-19T16:38:57.625Z,1.67
2023-05-19T16:41:27.268Z,1.80
2023-05-19T16:43:56.489Z,1.90
2023-05-19T16:46:29.281Z,2.90
2023-05-19T16:49:00.481Z,1.83
2023-05-19T16:51:31.122Z,2.27
2023-05-19T16:54:00.444Z,2.07
2023-05-19T16:56:29.593Z,2.43
2023-05-19T16:58:58.761Z,2.93
2023-05-19T17:01:27.825Z,2.30
2023-05-19T17:03:56.972Z,2.30
2023-05-19T17:06:26.203Z,2.90
2023-05-19T17:08:56.955Z,2.67
2023-05-19T17:11:26.817Z,2.43
2023-05-19T17:13:55.949Z,3.00
2023-05-19T17:16:25.077Z,2.30
2023-05-19T17:18:54.215Z,2.20
2023-05-19T17:21:23.188Z,2.87
2023-05-19T17:23:52.091Z,1.93
2023-05-19T17:26:22.637Z,2.73
2023-05-19T17:28:51.589Z,2.70
2023-05-19T17:31:20.648Z,2.30
2023-05-19T17:33:49.638Z,2.50
2023-05-19T17:36:18.675Z,2.80
2023-05-19T17:38:47.653Z,3.37
2023-05-19T17:41:16.984Z,2.77
2023-05-19T17:43:49.379Z,2.47
2023-05-19T17:46:18.559Z,1.83
2023-05-19T17:48:47.636Z,2.50
2023-05-19T17:51:17.150Z,2.67
2023-05-19T17:53:46.593Z,2.40
2023-05-19T17:56:16.334Z,2.87
2023-05-19T17:58:46.788Z,2.87
2023-05-19T18:01:18.102Z,2.87
2023-05-19T18:03:49.647Z,2.00
2023-05-19T18:06:21.543Z,3.10
2023-05-19T18:08:51.904Z,2.27
2023-05-19T18:11:21.585Z,1.90
2023-05-19T18:13:50.524Z,2.67
2023-05-19T18:16:23.885Z,2.87
2023-05-19T18:18:52.988Z,3.27
2023-05-19T18:21:25.363Z,2.57
2023-05-19T18:23:54.425Z,2.63
2023-05-19T18:26:23.861Z,2.07
2023-05-19T18:28:52.950Z,3.33
2023-05-19T18:31:23.554Z,3.10
2023-05-19T18:33:52.995Z,3.10
2023-05-19T18:36:22.475Z,2.87
2023-05-19T18:38:53.855Z,2.53
2023-05-19T18:41:26.354Z,6.53
2023-05-19T18:43:56.508Z,6.97
2023-05-19T18:46:27.184Z,3.23
2023-05-19T18:48:56.395Z,3.27
2023-05-19T18:51:25.899Z,3.70
2023-05-19T18:53:55.112Z,3.27
2023-05-19T18:56:28.292Z,2.60
2023-05-19T18:58:57.721Z,2.80
2023-05-19T19:01:31.233Z,2.90
2023-05-19T19:04:00.714Z,2.57
2023-05-19T19:06:29.878Z,3.10
2023-05-19T19:08:58.816Z,2.60
2023-05-19T19:11:28.171Z,3.70
2023-05-19T19:13:57.201Z,3.10
2023-05-19T19:16:28.039Z,3.00
2023-05-19T19:18:59.423Z,2.83
2023-05-19T19:21:30.153Z,2.70
2023-05-19T19:24:00.050Z,3.47
2023-05-19T19:26:30.250Z,4.10
2023-05-19T19:29:00.300Z,3.87
2023-05-19T19:31:31.332Z,3.03
2023-05-19T19:34:05.743Z,3.53
2023-05-19T19:36:35.057Z,3.30
2023-05-19T19:39:07.434Z,4.43
2023-05-19T19:41:37.941Z,3.57
2023-05-19T19:44:07.786Z,3.80
2023-05-19T19:46:38.555Z,3.30
2023-05-19T19:49:08.196Z,3.30
2023-05-19T19:51:39.354Z,3.30
2023-05-19T19:54:11.754Z,3.53
2023-05-19T19:56:41.438Z,3.70
2023-05-19T19:59:11.728Z,5.03
2023-05-19T20:01:42.627Z,5.40
2023-05-19T20:04:12.594Z,4.57
2023-05-19T20:06:42.146Z,5.10
2023-05-19T20:09:12.594Z,4.33
2023-05-19T20:11:42.054Z,4.50
2023-05-19T20:14:11.498Z,4.60
2023-05-19T20:16:42.625Z,4.20
2023-05-19T20:19:13.345Z,4.63
2023-05-19T20:21:42.719Z,4.67
2023-05-19T20:24:12.173Z,4.30
2023-05-19T20:26:41.888Z,3.97
2023-05-19T20:29:11.629Z,4.20
2023-05-19T20:31:42.493Z,3.50
2023-05-19T20:34:12.616Z,4.47
2023-05-19T20:36:42.383Z,4.40
2023-05-19T20:39:11.753Z,5.40
2023-05-19T20:41:41.109Z,4.97
2023-05-19T20:44:11.873Z,5.80
2023-05-19T20:46:42.566Z,4.87
2023-05-19T20:49:12.237Z,4.27
2023-05-19T20:51:47.352Z,4.70
2023-05-19T20:54:17.026Z,4.40
2023-05-19T20:56:51.731Z,3.77
2023-05-19T20:59:22.640Z,3.00
2023-05-19T21:01:56.092Z,4.50
2023-05-19T21:04:29.004Z,3.80
2023-05-19T21:06:58.452Z,3.83
2023-05-19T21:09:30.234Z,4.50
2023-05-19T21:12:00.008Z,4.70
2023-05-19T21:14:32.544Z,4.43
2023-05-19T21:17:03.323Z,5.00
2023-05-19T21:19:34.298Z,4.20
2023-05-19T21:22:03.754Z,4.73
2023-05-19T21:24:33.166Z,6.27
2023-05-19T21:27:02.718Z,5.27
2023-05-19T21:29:32.494Z,7.50
2023-05-19T21:32:04.557Z,4.30
2023-05-19T21:34:33.969Z,4.23
2023-05-19T21:37:04.007Z,5.50
2023-05-19T21:39:35.263Z,7.17
2023-05-19T21:42:08.227Z,5.77
2023-05-19T21:44:37.878Z,4.00
2023-05-19T21:47:15.831Z,3.20
2023-05-19T21:49:49.166Z,3.57
2023-05-19T21:52:19.427Z,4.50
2023-05-19T21:54:52.026Z,3.23
2023-05-19T21:57:21.703Z,3.70
2023-05-19T21:59:51.756Z,4.07
2023-05-19T22:02:23.114Z,4.30
2023-05-19T22:04:52.979Z,3.60
2023-05-19T22:07:27.149Z,3.60
2023-05-19T22:09:56.648Z,3.07
2023-05-19T22:12:28.664Z,3.80
2023-05-19T22:14:58.955Z,4.17
2023-05-19T22:17:30.418Z,4.40
2023-05-19T22:20:00.256Z,4.40
2023-05-19T22:22:30.063Z,4.47
2023-05-19T22:24:59.975Z,3.57
2023-05-19T22:27:32.355Z,4.03
2023-05-19T22:30:01.917Z,4.13
2023-05-19T22:32:35.611Z,3.53
2023-05-19T22:35:06.741Z,3.30
2023-05-19T22:37:37.564Z,4.60
2023-05-19T22:40:11.738Z,4.13
2023-05-19T22:42:41.463Z,4.07
2023-05-19T22:45:11.975Z,3.10
2023-05-19T22:47:43.244Z,3.00
2023-05-19T22:50:13.648Z,5.33
2023-05-19T22:52:43.047Z,3.30
2023-05-19T22:55:13.089Z,3.40
2023-05-19T22:57:48.969Z,5.10
2023-05-19T23:00:23.549Z,3.70
2023-05-19T23:02:56.020Z,3.80
2023-05-19T23:05:25.643Z,3.30
2023-05-19T23:07:57.821Z,4.27
2023-05-19T23:10:27.780Z,3.60
2023-05-19T23:13:00.801Z,6.63
2023-05-19T23:15:37.526Z,6.03
2023-05-19T23:18:08.856Z,3.37
2023-05-19T23:20:39.386Z,3.23
2023-05-19T23:23:09.296Z,3.50
2023-05-19T23:25:40.259Z,4.00
2023-05-19T23:28:11.127Z,3.90
2023-05-19T23:30:40.621Z,3.57
2023-05-19T23:33:11.503Z,4.20
2023-05-19T23:35:41.537Z,4.57
2023-05-19T23:38:12.466Z,3.50
2023-05-19T23:40:44.275Z,3.53
2023-05-19T23:43:16.147Z,3.63
2023-05-19T23:45:45.886Z,4.47
2023-05-19T23:48:17.317Z,3.97
2023-05-19T23:50:47.500Z,3.80
2023-05-19T23:53:17.351Z,3.57
2023-05-19T23:55:47.742Z,3.57
2023-05-19T23:58:17.569Z,3.73
